createdAt,value
2018-10-04T00:02:26.334Z,59.70
2018-10-04T00:04:56.839Z,60.90
2018-10-04T00:07:27.451Z,62.20
2018-10-04T00:09:56.646Z,62.20
2018-10-04T00:12:26.709Z,63.20
2018-10-04T00:14:56.413Z,63.80
2018-10-04T00:17:26.761Z,65.90
2018-10-04T00:19:57.678Z,65.70
2018-10-04T00:22:28.272Z,65.70
2018-10-04T00:24:57.759Z,66.30
2018-10-04T00:27:27.854Z,68.00
2018-10-04T00:29:58.930Z,68.20
2018-10-04T00:32:28.445Z,70.00
2018-10-04T00:34:58.040Z,68.60
2018-10-04T00:37:28.404Z,68.50
2018-10-04T00:39:58.308Z,69.00
2018-10-04T00:42:28.508Z,69.70
2018-10-04T00:44:57.876Z,70.10
2018-10-04T00:47:27.558Z,70.90
2018-10-04T00:49:57.118Z,70.50
2018-10-04T00:52:26.623Z,68.70
2018-10-04T00:54:56.508Z,68.10
2018-10-04T00:57:26.316Z,69.30
2018-10-04T00:59:55.930Z,71.20
2018-10-04T01:02:26.197Z,71.60
2018-10-04T01:04:57.500Z,70.50
2018-10-04T01:07:27.518Z,70.60
2018-10-04T01:09:58.115Z,73.40
2018-10-04T01:12:28.423Z,73.40
2018-10-04T01:14:59.210Z,73.70
2018-10-04T01:17:28.768Z,73.70
2018-10-04T01:19:58.290Z,73.80
2018-10-04T01:22:27.923Z,73.00
2018-10-04T01:24:57.879Z,73.10
2018-10-04T01:27:27.249Z,73.00
2018-10-04T01:29:57.303Z,72.20
2018-10-04T01:32:26.999Z,72.00
2018-10-04T01:34:56.374Z,72.70
2018-10-04T01:37:26.066Z,73.20
2018-10-04T01:39:55.603Z,73.70
2018-10-04T01:42:25.092Z,74.20
2018-10-04T01:44:56.752Z,75.40
2018-10-04T01:47:26.437Z,75.30
2018-10-04T01:49:56.684Z,75.30
2018-10-04T01:52:26.761Z,74.40
2018-10-04T01:54:56.211Z,74.40
2018-10-04T01:57:26.139Z,73.80
2018-10-04T01:59:55.484Z,75.10
2018-10-04T02:02:25.487Z,75.40
2018-10-04T02:04:55.210Z,76.00
2018-10-04T02:07:24.652Z,74.50
2018-10-04T02:09:54.264Z,76.00
2018-10-04T02:12:23.827Z,76.30
2018-10-04T02:14:53.606Z,76.00
2018-10-04T02:17:22.997Z,77.50
2018-10-04T02:19:52.195Z,77.00
2018-10-04T02:22:21.877Z,76.20
2018-10-04T02:24:51.638Z,75.70
2018-10-04T02:27:21.349Z,75.90
2018-10-04T02:29:50.896Z,75.90
2018-10-04T02:32:20.345Z,76.70
2018-10-04T02:34:49.854Z,75.10
2018-10-04T02:37:19.927Z,75.60
2018-10-04T02:39:50.380Z,76.80
2018-10-04T02:42:19.675Z,76.60
2018-10-04T02:44:49.440Z,76.80
2018-10-04T02:47:19.094Z,77.80
2018-10-04T02:49:48.814Z,78.40
2018-10-04T02:52:18.403Z,78.00
2018-10-04T02:54:48.688Z,78.70
2018-10-04T02:57:18.992Z,78.70
2018-10-04T02:59:48.504Z,78.80
2018-10-04T03:02:18.037Z,78.90
2018-10-04T03:04:47.764Z,77.20
2018-10-04T03:07:17.413Z,78.40
2018-10-04T03:09:46.986Z,78.00
2018-10-04T03:12:16.610Z,76.10
2018-10-04T03:14:46.108Z,76.70
2018-10-04T03:17:16.436Z,78.90
2018-10-04T03:19:46.570Z,78.70
2018-10-04T03:22:15.839Z,77.70
2018-10-04T03:24:45.929Z,78.90
2018-10-04T03:27:16.793Z,78.90
2018-10-04T03:29:46.947Z,79.20
2018-10-04T03:32:17.743Z,79.10
2018-10-04T03:34:47.574Z,78.50
2018-10-04T03:37:18.158Z,78.30
2018-10-04T03:39:47.744Z,78.10
2018-10-04T03:42:18.081Z,78.40
2018-10-04T03:44:47.681Z,79.60
2018-10-04T03:47:17.279Z,80.20
2018-10-04T03:49:46.865Z,80.00
2018-10-04T03:52:16.607Z,80.70
2018-10-04T03:54:46.228Z,80.90
2018-10-04T03:57:17.649Z,80.00
2018-10-04T03:59:48.434Z,80.70
2018-10-04T04:02:18.405Z,80.40
2018-10-04T04:04:48.863Z,80.20
2018-10-04T04:07:18.797Z,79.90
2018-10-04T04:09:48.258Z,79.60
2018-10-04T04:12:17.684Z,81.50
2018-10-04T04:14:47.339Z,81.00
2018-10-04T04:17:17.043Z,81.20
2018-10-04T04:19:47.450Z,82.00
2018-10-04T04:22:18.451Z,82.00
2018-10-04T04:24:48.484Z,81.60
2018-10-04T04:27:18.406Z,80.70
2018-10-04T04:29:48.104Z,80.30
2018-10-04T04:32:20.238Z,80.80
2018-10-04T04:34:49.796Z,80.70
2018-10-04T04:37:20.203Z,81.80
2018-10-04T04:39:50.113Z,81.80
2018-10-04T04:42:20.655Z,82.80
2018-10-04T04:44:50.745Z,81.90
2018-10-04T04:47:20.268Z,81.60
2018-10-04T04:49:49.690Z,81.60
2018-10-04T04:52:18.681Z,81.40
2018-10-04T04:54:48.598Z,81.60
2018-10-04T04:57:17.580Z,81.60
2018-10-04T04:59:47.457Z,80.90
2018-10-04T05:02:16.940Z,81.30
2018-10-04T05:04:46.501Z,81.50
2018-10-04T05:07:16.238Z,81.60
2018-10-04T05:09:45.847Z,82.30
2018-10-04T05:12:15.390Z,84.00
2018-10-04T05:14:44.880Z,84.00
2018-10-04T05:17:14.594Z,82.50
2018-10-04T05:19:44.764Z,82.30
2018-10-04T05:22:14.183Z,82.80
2018-10-04T05:24:43.783Z,82.80
2018-10-04T05:27:13.430Z,83.90
2018-10-04T05:29:43.818Z,83.60
2018-10-04T05:32:13.597Z,83.50
2018-10-04T05:34:43.030Z,83.90
2018-10-04T05:37:12.598Z,85.00
2018-10-04T05:39:42.237Z,85.20
2018-10-04T05:42:11.917Z,85.00
2018-10-04T05:44:41.561Z,85.20
2018-10-04T05:47:11.906Z,86.10
2018-10-04T05:49:42.474Z,86.70
2018-10-04T05:52:12.192Z,87.10
2018-10-04T05:54:42.016Z,87.50
2018-10-04T05:57:11.472Z,86.80
2018-10-04T05:59:41.204Z,86.80
2018-10-04T06:02:11.522Z,87.30
2018-10-04T06:04:40.990Z,86.30
2018-10-04T06:07:11.056Z,86.40
2018-10-04T06:09:40.877Z,86.90
2018-10-04T06:14:56.652Z,87.60
2018-10-04T06:17:26.105Z,87.40
2018-10-04T06:19:55.938Z,87.00
2018-10-04T06:22:26.997Z,87.70
2018-10-04T06:24:57.382Z,88.10
2018-10-04T06:27:27.971Z,88.00
2018-10-04T06:29:57.980Z,88.50
2018-10-04T06:32:27.389Z,88.10
2018-10-04T06:34:56.888Z,87.50
2018-10-04T06:37:26.311Z,88.10
2018-10-04T06:39:57.241Z,87.90
2018-10-04T06:42:27.479Z,88.20
2018-10-04T06:44:56.779Z,88.10
2018-10-04T06:47:26.314Z,88.20
2018-10-04T06:49:55.875Z,88.40
2018-10-04T06:52:25.161Z,88.60
2018-10-04T06:54:54.708Z,88.20
2018-10-04T06:57:26.043Z,89.00
2018-10-04T06:59:55.548Z,88.40
2018-10-04T07:02:25.920Z,88.90
2018-10-04T07:04:55.340Z,88.90
2018-10-04T07:07:25.342Z,88.30
2018-10-04T07:09:54.741Z,88.50
2018-10-04T07:12:24.447Z,88.40
2018-10-04T07:14:53.778Z,88.80
2018-10-04T07:17:26.079Z,89.00
2018-10-04T07:19:55.051Z,89.40
2018-10-04T07:22:24.627Z,89.40
2018-10-04T07:24:54.161Z,88.90
2018-10-04T07:27:25.226Z,89.30
2018-10-04T07:29:54.845Z,89.20
2018-10-04T07:32:24.641Z,88.70
2018-10-04T07:34:54.394Z,88.30
2018-10-04T07:37:24.417Z,88.00
2018-10-04T07:39:53.985Z,88.40
2018-10-04T07:42:24.163Z,89.20
2018-10-04T07:44:53.687Z,87.50
2018-10-04T07:47:23.234Z,88.30
2018-10-04T07:49:53.150Z,88.90
2018-10-04T07:52:22.785Z,88.60
2018-10-04T07:54:52.591Z,87.80
2018-10-04T07:57:21.908Z,88.30
2018-10-04T07:59:51.367Z,88.60
2018-10-04T08:02:20.981Z,89.00
2018-10-04T08:04:50.756Z,88.60
2018-10-04T08:07:20.236Z,87.80
2018-10-04T08:09:50.318Z,87.30
2018-10-04T08:12:21.050Z,88.00
2018-10-04T08:14:50.429Z,89.00
2018-10-04T08:17:20.161Z,89.50
2018-10-04T08:19:49.900Z,90.00
2018-10-04T08:22:19.473Z,90.30
2018-10-04T08:24:48.870Z,90.20
2018-10-04T08:27:19.123Z,90.30
2018-10-04T08:29:48.526Z,90.50
2018-10-04T08:32:18.303Z,90.60
2018-10-04T08:34:48.983Z,90.70
2018-10-04T08:37:18.326Z,90.70
2018-10-04T08:39:49.005Z,90.60
2018-10-04T08:42:19.624Z,90.60
2018-10-04T08:44:49.102Z,90.20
2018-10-04T08:47:19.845Z,90.30
2018-10-04T08:49:49.351Z,90.70
2018-10-04T08:52:19.543Z,90.60
2018-10-04T08:54:49.081Z,90.90
2018-10-04T08:57:18.957Z,90.90
2018-10-04T08:59:50.459Z,90.80
2018-10-04T09:02:19.925Z,90.80
2018-10-04T09:04:50.707Z,91.00
2018-10-04T09:07:20.750Z,90.70
2018-10-04T09:09:51.693Z,90.80
2018-10-04T09:12:22.152Z,90.90
2018-10-04T09:14:52.051Z,90.90
2018-10-04T09:17:21.861Z,90.90
2018-10-04T09:19:52.358Z,90.70
2018-10-04T09:22:21.708Z,90.60
2018-10-04T09:24:51.925Z,90.40
2018-10-04T09:27:22.109Z,90.70
2018-10-04T09:29:52.599Z,90.70
2018-10-04T09:32:23.042Z,91.00
2018-10-04T09:34:52.498Z,91.10
2018-10-04T09:37:22.948Z,90.90
2018-10-04T09:40:05.226Z,90.90
2018-10-04T09:42:37.450Z,91.20
2018-10-04T09:45:07.648Z,91.20
2018-10-04T09:47:38.687Z,91.40
2018-10-04T09:50:08.102Z,91.10
2018-10-04T09:52:37.941Z,91.30
2018-10-04T09:55:07.476Z,91.30
2018-10-04T09:57:37.748Z,91.50
2018-10-04T10:00:08.339Z,91.50
2018-10-04T10:02:39.573Z,91.60
2018-10-04T10:05:09.649Z,91.50
2018-10-04T10:07:38.967Z,91.50
2018-10-04T10:10:10.551Z,91.60
2018-10-04T10:12:41.100Z,91.90
2018-10-04T10:15:12.575Z,91.50
2018-10-04T10:17:42.144Z,91.20
2018-10-04T10:20:12.419Z,91.50
2018-10-04T10:22:42.145Z,91.50
2018-10-04T10:25:11.711Z,91.70
2018-10-04T10:27:41.217Z,91.80
2018-10-04T10:30:10.719Z,91.80
2018-10-04T10:32:40.253Z,91.90
2018-10-04T10:35:11.276Z,91.80
2018-10-04T10:37:40.929Z,91.70
2018-10-04T10:40:10.588Z,91.80
2018-10-04T10:42:40.341Z,92.00
2018-10-04T10:45:11.832Z,91.70
2018-10-04T10:47:41.240Z,91.90
2018-10-04T10:50:10.756Z,91.90
2018-10-04T10:52:42.338Z,91.80
2018-10-04T10:55:12.262Z,91.80
2018-10-04T10:57:41.740Z,91.80
2018-10-04T11:00:11.321Z,91.90
2018-10-04T11:02:40.863Z,91.90
2018-10-04T11:05:10.621Z,91.80
2018-10-04T11:07:40.804Z,91.90
2018-10-04T11:10:10.186Z,91.90
2018-10-04T11:12:41.937Z,91.90
2018-10-04T11:15:12.893Z,92.20
2018-10-04T11:17:43.833Z,92.10
2018-10-04T11:20:14.203Z,92.10
2018-10-04T11:22:43.606Z,92.00
2018-10-04T11:25:13.335Z,92.10
2018-10-04T11:27:43.759Z,92.00
2018-10-04T11:30:13.520Z,92.00
2018-10-04T11:32:43.197Z,92.10
2018-10-04T11:35:13.648Z,92.10
2018-10-04T11:37:43.218Z,92.10
2018-10-04T11:40:13.618Z,92.20
2018-10-04T11:42:44.649Z,92.20
2018-10-04T11:45:14.357Z,92.00
2018-10-04T11:47:44.212Z,91.90
2018-10-04T11:50:14.155Z,91.80
2018-10-04T11:52:43.700Z,91.80
2018-10-04T11:55:14.018Z,92.00
2018-10-04T11:57:43.574Z,92.00
2018-10-04T12:00:13.701Z,92.20
2018-10-04T12:02:44.084Z,92.20
2018-10-04T12:05:14.139Z,92.00
2018-10-04T12:07:44.570Z,92.00
2018-10-04T12:10:14.402Z,92.10
2018-10-04T12:12:43.685Z,91.80
2018-10-04T12:15:13.396Z,91.80
2018-10-04T12:17:43.178Z,91.80
2018-10-04T12:20:13.205Z,91.90
2018-10-04T12:22:42.569Z,91.80
2018-10-04T12:25:12.110Z,91.90
2018-10-04T12:27:41.717Z,92.10
2018-10-04T12:30:11.458Z,92.40
2018-10-04T12:32:41.006Z,91.90
2018-10-04T12:35:11.487Z,91.80
2018-10-04T12:37:41.323Z,91.70
2018-10-04T12:40:11.385Z,91.90
2018-10-04T12:42:40.705Z,91.90
2018-10-04T12:45:11.035Z,91.40
2018-10-04T12:47:40.542Z,91.40
2018-10-04T12:50:10.313Z,91.50
2018-10-04T12:52:40.395Z,91.60
2018-10-04T12:55:10.213Z,91.70
2018-10-04T12:57:39.968Z,91.80
2018-10-04T13:00:09.783Z,91.70
2018-10-04T13:02:41.106Z,91.40
2018-10-04T13:05:11.902Z,91.40
2018-10-04T13:07:41.624Z,91.50
2018-10-04T13:10:11.679Z,91.50
2018-10-04T13:12:42.227Z,91.70
2018-10-04T13:15:11.912Z,91.60
2018-10-04T13:17:41.665Z,91.90
2018-10-04T13:20:11.554Z,91.90
2018-10-04T13:22:41.989Z,92.00
2018-10-04T13:25:11.583Z,92.00
2018-10-04T13:27:41.818Z,91.90
2018-10-04T13:30:11.723Z,92.10
2018-10-04T13:32:41.423Z,92.00
2018-10-04T13:35:11.013Z,92.10
2018-10-04T13:37:40.559Z,91.90
2018-10-04T13:40:09.995Z,92.10
2018-10-04T13:42:39.958Z,92.10
2018-10-04T13:45:10.611Z,92.20
2018-10-04T13:47:40.046Z,92.00
2018-10-04T13:50:09.747Z,91.90
2018-10-04T13:52:41.029Z,91.90
2018-10-04T13:55:12.719Z,92.10
2018-10-04T13:57:42.309Z,92.10
2018-10-04T14:00:12.344Z,92.20
2018-10-04T14:02:44.176Z,92.60
2018-10-04T14:05:13.943Z,92.30
2018-10-04T14:07:43.381Z,92.40
2018-10-04T14:10:13.395Z,92.30
2018-10-04T14:12:43.002Z,92.30
2018-10-04T14:15:12.392Z,92.30
2018-10-04T14:17:42.075Z,92.30
2018-10-04T14:20:12.503Z,92.20
2018-10-04T14:22:42.237Z,92.20
2018-10-04T14:25:11.705Z,92.30
2018-10-04T14:27:41.422Z,92.40
2018-10-04T14:30:13.409Z,92.50
2018-10-04T14:32:43.184Z,92.40
2018-10-04T14:35:12.902Z,92.50
2018-10-04T14:37:42.468Z,92.50
2018-10-04T14:40:12.447Z,92.60
2018-10-04T14:42:42.153Z,93.20
2018-10-04T14:45:11.619Z,92.60
2018-10-04T14:47:41.413Z,92.30
2018-10-04T14:50:11.228Z,92.30
2018-10-04T14:52:40.838Z,92.30
2018-10-04T14:55:11.985Z,92.20
2018-10-04T14:57:41.650Z,92.20
2018-10-04T15:00:11.132Z,92.20
2018-10-04T15:02:40.804Z,92.50
2018-10-04T15:05:11.623Z,92.40
2018-10-04T15:07:41.143Z,92.40
2018-10-04T15:10:10.299Z,92.40
2018-10-04T15:12:39.400Z,92.40
2018-10-04T15:15:09.278Z,92.50
2018-10-04T15:17:40.304Z,92.40
2018-10-04T15:20:11.174Z,92.40
2018-10-04T15:22:41.682Z,92.40
2018-10-04T15:25:12.490Z,92.40
2018-10-04T15:27:42.185Z,92.40
2018-10-04T15:30:12.219Z,92.40
2018-10-04T15:32:42.259Z,92.30
2018-10-04T15:35:12.736Z,92.20
2018-10-04T15:37:43.713Z,92.00
2018-10-04T15:40:13.364Z,91.80
2018-10-04T15:42:42.525Z,92.00
2018-10-04T15:45:12.146Z,92.10
2018-10-04T15:47:42.082Z,92.50
2018-10-04T15:50:12.459Z,92.30
2018-10-04T15:52:41.844Z,92.30
2018-10-04T15:55:11.905Z,91.90
2018-10-04T15:57:42.011Z,91.70
2018-10-04T16:00:12.223Z,92.00
2018-10-04T16:02:42.280Z,91.10
2018-10-04T16:05:13.263Z,88.70
2018-10-04T16:07:42.658Z,84.50
2018-10-04T16:10:11.944Z,82.50
2018-10-04T16:12:42.762Z,79.30
2018-10-04T16:15:12.791Z,76.00
2018-10-04T16:17:42.267Z,75.10
2018-10-04T16:20:13.680Z,76.10
2018-10-04T16:22:43.046Z,76.90
2018-10-04T16:25:12.661Z,76.80
2018-10-04T16:27:42.885Z,76.80
2018-10-04T16:30:13.095Z,78.10
2018-10-04T16:32:43.452Z,79.00
2018-10-04T16:35:12.802Z,79.00
2018-10-04T16:37:42.363Z,77.40
2018-10-04T16:40:15.208Z,77.60
2018-10-04T16:42:46.596Z,76.50
2018-10-04T16:45:16.685Z,76.00
2018-10-04T16:47:46.029Z,74.60
2018-10-04T16:50:15.782Z,69.50
2018-10-04T16:52:45.192Z,54.70
2018-10-04T16:55:15.526Z,38.00
2018-10-04T16:57:45.391Z,37.70
2018-10-04T17:00:15.018Z,31.40
2018-10-04T17:02:44.656Z,28.20
2018-10-04T17:05:14.297Z,26.20
2018-10-04T17:07:44.186Z,23.90
2018-10-04T17:10:13.843Z,22.70
2018-10-04T17:12:44.450Z,21.50
2018-10-04T17:15:14.470Z,20.20
2018-10-04T17:17:44.071Z,19.60
2018-10-04T17:20:13.775Z,18.70
2018-10-04T17:22:43.418Z,17.80
2018-10-04T17:25:12.984Z,17.90
2018-10-04T17:27:43.259Z,17.20
2018-10-04T17:30:14.666Z,16.70
2018-10-04T17:32:44.702Z,16.60
2018-10-04T17:35:14.297Z,16.70
2018-10-04T17:37:44.077Z,16.80
2018-10-04T17:40:13.888Z,17.10
2018-10-04T17:42:43.571Z,19.50
2018-10-04T17:45:14.609Z,23.90
2018-10-04T17:47:44.646Z,27.20
2018-10-04T17:50:14.183Z,28.70
2018-10-04T17:52:45.498Z,32.30
2018-10-04T17:55:14.953Z,35.50
2018-10-04T17:57:44.701Z,38.30
2018-10-04T18:00:15.210Z,41.00
2018-10-04T18:02:44.865Z,41.00
2018-10-04T18:05:14.275Z,43.20
2018-10-04T18:07:43.786Z,42.70
2018-10-04T18:10:13.910Z,47.20
2018-10-04T18:12:43.549Z,46.40
2018-10-04T18:15:13.157Z,47.70
2018-10-04T18:17:42.695Z,50.00
2018-10-04T18:20:12.613Z,48.40
2018-10-04T18:22:43.703Z,50.00
2018-10-04T18:25:13.495Z,52.00
2018-10-04T18:27:43.063Z,53.80
2018-10-04T18:30:13.285Z,54.00
2018-10-04T18:32:43.208Z,55.20
2018-10-04T18:35:12.818Z,56.20
2018-10-04T18:37:43.370Z,55.50
2018-10-04T18:40:12.812Z,55.40
2018-10-04T18:42:42.344Z,55.50
2018-10-04T18:45:14.169Z,56.50
2018-10-04T18:47:44.461Z,56.50
2018-10-04T18:50:13.982Z,58.10
2018-10-04T18:52:43.825Z,57.20
2018-10-04T18:55:13.731Z,57.00
2018-10-04T18:57:43.683Z,56.70
2018-10-04T19:00:14.121Z,58.20
2018-10-04T19:02:44.395Z,56.80
2018-10-04T19:05:14.184Z,56.70
2018-10-04T19:07:44.530Z,57.80
2018-10-04T19:10:14.146Z,57.90
2018-10-04T19:12:43.584Z,58.30
2018-10-04T19:15:13.486Z,58.40
2018-10-04T19:17:43.488Z,57.80
2018-10-04T19:20:13.264Z,58.40
2018-10-04T19:22:42.945Z,60.20
2018-10-04T19:25:12.537Z,59.20
2018-10-04T19:27:42.488Z,59.50
2018-10-04T19:30:12.294Z,59.40
2018-10-04T19:32:41.859Z,56.90
2018-10-04T19:35:11.408Z,57.80
2018-10-04T19:37:41.800Z,56.70
2018-10-04T19:40:13.240Z,53.00
2018-10-04T19:42:43.451Z,52.90
2018-10-04T19:45:13.015Z,51.80
2018-10-04T19:47:43.650Z,52.00
2018-10-04T19:50:13.094Z,51.70
2018-10-04T19:52:42.977Z,51.30
2018-10-04T19:55:13.474Z,50.70
2018-10-04T19:57:43.000Z,52.00
2018-10-04T20:00:14.092Z,52.30
2018-10-04T20:02:43.594Z,53.50
2018-10-04T20:05:13.527Z,54.70
2018-10-04T20:07:43.354Z,51.80
2018-10-04T20:10:12.916Z,52.10
2018-10-04T20:12:42.508Z,52.20
2018-10-04T20:15:12.701Z,51.50
2018-10-04T20:17:42.987Z,52.10
2018-10-04T20:20:12.775Z,52.60
2018-10-04T20:22:43.138Z,53.10
2018-10-04T20:25:13.615Z,52.50
2018-10-04T20:27:43.270Z,52.40
2018-10-04T20:30:13.819Z,54.80
2018-10-04T20:32:43.236Z,54.70
2018-10-04T20:35:13.033Z,55.20
2018-10-04T20:37:42.943Z,53.90
2018-10-04T20:40:12.684Z,54.00
2018-10-04T20:42:42.906Z,53.50
2018-10-04T20:45:12.850Z,52.30
2018-10-04T20:47:42.280Z,53.40
2018-10-04T20:50:12.401Z,53.30
2018-10-04T20:52:42.149Z,53.20
2018-10-04T20:55:11.657Z,54.50
2018-10-04T20:57:41.631Z,55.00
2018-10-04T21:00:11.091Z,53.30
2018-10-04T21:02:41.246Z,53.20
2018-10-04T21:05:11.639Z,52.90
2018-10-04T21:07:41.222Z,53.50
2018-10-04T21:10:10.920Z,54.30
2018-10-04T21:12:40.778Z,54.70
2018-10-04T21:15:12.104Z,54.70
2018-10-04T21:17:41.743Z,56.30
2018-10-04T21:20:11.806Z,56.10
2018-10-04T21:22:41.395Z,55.50
2018-10-04T21:25:10.909Z,52.20
2018-10-04T21:27:40.667Z,53.50
2018-10-04T21:30:11.105Z,55.40
2018-10-04T21:32:40.841Z,55.30
2018-10-04T21:35:10.449Z,55.20
2018-10-04T21:37:41.188Z,54.70
2018-10-04T21:40:11.695Z,54.10
2018-10-04T21:42:42.370Z,54.00
2018-10-04T21:45:12.053Z,51.80
2018-10-04T21:47:41.262Z,52.10
2018-10-04T21:50:10.911Z,53.30
2018-10-04T21:52:40.847Z,52.20
2018-10-04T21:55:10.342Z,51.90
2018-10-04T21:57:40.851Z,52.80
2018-10-04T22:00:10.573Z,54.00
2018-10-04T22:02:40.602Z,54.00
2018-10-04T22:05:10.211Z,54.60
2018-10-04T22:07:40.558Z,55.80
2018-10-04T22:10:11.035Z,54.50
2018-10-04T22:12:40.753Z,54.50
2018-10-04T22:15:11.327Z,55.70
2018-10-04T22:17:41.224Z,56.60
2018-10-04T22:20:10.780Z,55.40
2018-10-04T22:22:40.449Z,54.70
2018-10-04T22:25:10.328Z,55.50
2018-10-04T22:27:39.865Z,55.80
2018-10-04T22:30:09.630Z,55.60
2018-10-04T22:32:39.408Z,54.90
2018-10-04T22:35:09.198Z,54.60
2018-10-04T22:37:39.082Z,55.60
2018-10-04T22:40:10.575Z,55.90
2018-10-04T22:42:40.518Z,55.90
2018-10-04T22:45:11.018Z,55.70
2018-10-04T22:47:40.865Z,55.70
2018-10-04T22:50:10.730Z,56.10
2018-10-04T22:52:40.473Z,57.00
2018-10-04T22:55:10.649Z,55.70
2018-10-04T22:57:40.841Z,56.60
2018-10-04T23:00:10.411Z,57.60
2018-10-04T23:02:40.089Z,58.10
2018-10-04T23:05:10.602Z,56.30
2018-10-04T23:07:40.122Z,56.30
2018-10-04T23:10:09.944Z,58.10
2018-10-04T23:12:40.584Z,57.40
2018-10-04T23:15:11.033Z,57.50
2018-10-04T23:17:40.628Z,57.00
2018-10-04T23:20:10.454Z,57.20
2018-10-04T23:22:39.944Z,57.50
2018-10-04T23:25:09.668Z,58.10
2018-10-04T23:27:39.092Z,56.60
2018-10-04T23:30:09.561Z,56.50
2018-10-04T23:32:39.175Z,58.00
2018-10-04T23:35:08.978Z,58.70
2018-10-04T23:37:38.920Z,59.00
2018-10-04T23:40:08.566Z,58.70
2018-10-04T23:42:39.970Z,56.80
2018-10-04T23:45:10.269Z,56.70
2018-10-04T23:47:41.597Z,56.30
2018-10-04T23:50:11.797Z,57.40
2018-10-04T23:52:41.444Z,57.60
2018-10-04T23:55:10.868Z,57.40
2018-10-04T23:57:41.081Z,57.60
